Time;durP1;ratioP1;P1;durP2;ratioP2;P2;SDS_P1;SDS_P2;PMS_P1;PMS_P2;Temp;Humidity;BMP_temperature;BMP_pressure;BME280_temperature;BME280_humidity;BME280_pressure;Samples;Min_cycle;Max_cycle;Signal;HPM_P1;HPM_P2
2021/10/10 00:00:42;;;;;;;15.40;13.27;;;11.40;88.80;;;;;;5021395;28;20230;-69
2021/10/10 00:03:09;;;;;;;13.65;11.82;;;11.40;88.80;;;;;;5020677;28;20226;-69
2021/10/10 00:05:37;;;;;;;30.92;21.65;;;11.40;88.70;;;;;;5019953;28;20550;-69
2021/10/10 00:08:04;;;;;;;15.60;13.27;;;11.40;88.20;;;;;;5022582;28;20250;-70
2021/10/10 00:10:33;;;;;;;18.13;15.70;;;11.40;88.20;;;;;;5021489;28;20223;-69
2021/10/10 00:13:00;;;;;;;16.65;13.52;;;11.30;87.80;;;;;;5022257;28;20704;-69
2021/10/10 00:15:28;;;;;;;15.75;13.50;;;11.40;88.10;;;;;;5016111;28;20234;-69
2021/10/10 00:17:55;;;;;;;16.00;14.40;;;11.30;87.90;;;;;;5027088;28;20234;-69
2021/10/10 00:20:22;;;;;;;16.40;13.05;;;11.30;88.00;;;;;;5015027;28;20226;-69
2021/10/10 00:22:49;;;;;;;15.65;12.13;;;11.30;88.10;;;;;;5020615;28;20225;-69
2021/10/10 00:25:16;;;;;;;14.63;13.13;;;11.30;88.20;;;;;;5021496;28;20233;-69
2021/10/10 00:27:44;;;;;;;15.68;14.00;;;11.30;88.40;;;;;;5024095;28;20231;-69
2021/10/10 00:30:11;;;;;;;16.25;13.52;;;11.30;88.20;;;;;;5019240;28;20709;-69
2021/10/10 00:32:38;;;;;;;16.75;14.20;;;11.30;88.30;;;;;;5013216;28;20226;-69
2021/10/10 00:35:06;;;;;;;19.08;15.73;;;11.30;89.20;;;;;;5025849;28;20323;-69
2021/10/10 00:37:33;;;;;;;16.38;13.68;;;11.30;88.70;;;;;;5022449;28;20222;-69
2021/10/10 00:40:00;;;;;;;18.70;13.95;;;11.30;88.90;;;;;;5024896;28;20236;-69
2021/10/10 00:42:27;;;;;;;17.52;14.63;;;11.30;88.60;;;;;;5012927;28;20293;-69
2021/10/10 00:44:55;;;;;;;18.00;14.80;;;11.30;88.50;;;;;;5021186;28;20224;-69
2021/10/10 00:47:22;;;;;;;18.50;14.38;;;11.30;88.30;;;;;;5024355;28;20235;-69
2021/10/10 00:49:48;;;;;;;15.63;12.95;;;11.20;88.40;;;;;;5017219;28;20221;-69
2021/10/10 00:52:17;;;;;;;13.10;11.80;;;11.20;88.40;;;;;;5021343;28;20213;-69
2021/10/10 00:54:46;;;;;;;230.25;133.85;;;11.20;88.50;;;;;;5021130;28;20244;-69
2021/10/10 00:57:14;;;;;;;26.77;23.88;;;11.30;95.70;;;;;;5025367;28;20241;-69
2021/10/10 00:59:44;;;;;;;72.22;58.38;;;11.30;91.70;;;;;;5013045;28;20241;-69
2021/10/10 01:02:12;;;;;;;17.98;14.25;;;11.40;92.60;;;;;;5022329;28;20222;-69
2021/10/10 01:04:39;;;;;;;25.33;20.35;;;11.30;90.30;;;;;;5025664;28;20346;-69
2021/10/10 01:07:06;;;;;;;17.70;15.52;;;11.30;90.00;;;;;;5025987;28;20232;-70
2021/10/10 01:09:35;;;;;;;15.45;13.65;;;11.30;89.30;;;;;;5014256;28;20311;-69
2021/10/10 01:12:03;;;;;;;16.80;14.45;;;11.30;89.00;;;;;;5024528;28;20231;-69
2021/10/10 01:14:30;;;;;;;19.52;14.55;;;11.30;88.80;;;;;;5026501;28;20219;-70
2021/10/10 01:16:56;;;;;;;15.98;12.15;;;11.30;88.70;;;;;;5012613;28;20229;-70
2021/10/10 01:19:24;;;;;;;19.75;14.18;;;11.30;88.80;;;;;;5020073;28;20571;-69
2021/10/10 01:21:56;;;;;;;17.58;14.43;;;11.30;88.20;;;;;;5019947;28;20225;-69
2021/10/10 01:24:23;;;;;;;271.83;200.20;;;11.30;88.20;;;;;;5025857;28;20216;-69
2021/10/10 01:26:50;;;;;;;28.60;23.65;;;11.30;93.00;;;;;;5012370;28;20252;-69
2021/10/10 01:29:17;;;;;;;24.13;18.90;;;11.20;90.50;;;;;;5018741;28;20233;-69
2021/10/10 01:31:44;;;;;;;17.65;13.95;;;11.20;89.60;;;;;;5031568;28;20232;-69
2021/10/10 01:34:11;;;;;;;13.95;12.52;;;11.10;88.70;;;;;;5012060;28;20232;-69
2021/10/10 01:36:38;;;;;;;18.73;15.38;;;11.10;88.80;;;;;;5025926;28;20380;-69
2021/10/10 01:39:07;;;;;;;19.52;14.63;;;11.00;88.80;;;;;;5012227;28;20249;-69
2021/10/10 01:41:34;;;;;;;19.90;13.65;;;11.00;89.10;;;;;;5009497;28;20661;-69
2021/10/10 01:44:01;;;;;;;20.38;15.25;;;10.90;89.50;;;;;;5003580;28;20226;-69
2021/10/10 01:46:27;;;;;;;69.53;55.65;;;11.00;89.50;;;;;;4998199;28;20227;-69
2021/10/10 01:48:54;;;;;;;16.23;13.38;;;11.00;91.10;;;;;;4998527;28;20238;-69
2021/10/10 01:51:21;;;;;;;17.55;13.68;;;10.90;90.20;;;;;;4997979;28;20235;-69
2021/10/10 01:53:48;;;;;;;19.15;14.63;;;10.90;90.10;;;;;;5000032;28;20585;-69
2021/10/10 01:56:21;;;;;;;17.85;13.98;;;10.90;90.10;;;;;;4998900;28;20713;-69
2021/10/10 01:58:47;;;;;;;18.52;15.40;;;10.90;90.00;;;;;;4999557;28;20237;-69
2021/10/10 02:01:14;;;;;;;17.75;14.25;;;10.90;90.10;;;;;;4999840;28;20675;-68
2021/10/10 02:03:41;;;;;;;18.50;15.00;;;10.80;90.10;;;;;;5000662;28;20322;-69
2021/10/10 02:06:08;;;;;;;16.55;14.45;;;10.70;90.20;;;;;;5000209;28;20239;-69
2021/10/10 02:08:35;;;;;;;17.48;13.77;;;10.70;90.20;;;;;;4999552;28;20728;-69
2021/10/10 02:11:02;;;;;;;18.33;16.02;;;10.70;90.30;;;;;;5000428;28;20244;-69
2021/10/10 02:13:30;;;;;;;19.05;15.35;;;10.70;90.40;;;;;;5000061;28;20238;-70
2021/10/10 02:15:57;;;;;;;17.48;14.05;;;10.70;90.40;;;;;;5000139;28;20239;-69
2021/10/10 02:18:24;;;;;;;16.73;14.02;;;10.80;90.40;;;;;;5006410;28;20320;-69
2021/10/10 02:20:51;;;;;;;17.42;14.50;;;10.80;90.40;;;;;;5002467;28;20222;-69
2021/10/10 02:23:18;;;;;;;18.33;15.85;;;10.80;90.40;;;;;;5012596;28;20314;-68
2021/10/10 02:25:45;;;;;;;19.13;15.68;;;10.80;90.30;;;;;;4998036;28;20567;-69
2021/10/10 02:28:13;;;;;;;19.63;14.80;;;10.80;90.20;;;;;;5002050;28;20235;-69
2021/10/10 02:30:42;;;;;;;22.00;15.13;;;10.80;90.30;;;;;;5008636;28;20228;-69
2021/10/10 02:33:09;;;;;;;19.65;16.02;;;10.80;90.30;;;;;;5010894;28;20228;-68
2021/10/10 02:35:35;;;;;;;22.27;16.00;;;10.80;90.30;;;;;;5001424;28;20328;-69
2021/10/10 02:38:02;;;;;;;16.63;14.82;;;10.80;90.30;;;;;;5003348;28;20306;-69
2021/10/10 02:40:29;;;;;;;19.35;16.35;;;10.80;90.30;;;;;;5008430;28;20237;-69
2021/10/10 02:42:56;;;;;;;18.27;16.27;;;10.80;90.30;;;;;;5000508;28;20692;-69
2021/10/10 02:45:23;;;;;;;16.98;15.18;;;10.80;90.30;;;;;;5013725;28;20237;-69
2021/10/10 02:47:51;;;;;;;16.65;14.73;;;10.70;90.30;;;;;;5010678;28;20228;-70
2021/10/10 02:50:18;;;;;;;17.33;15.23;;;10.70;90.50;;;;;;4997565;28;20309;-69
2021/10/10 02:52:45;;;;;;;16.65;14.93;;;10.60;90.50;;;;;;5008210;28;20301;-70
2021/10/10 02:55:12;;;;;;;19.90;16.90;;;10.70;90.60;;;;;;5001869;28;20236;-70
2021/10/10 02:57:38;;;;;;;20.33;17.17;;;10.60;90.60;;;;;;5001220;28;20249;-70
2021/10/10 03:00:09;;;;;;;20.20;14.93;;;10.60;90.60;;;;;;5008344;28;20261;-70
2021/10/10 03:02:36;;;;;;;19.15;15.73;;;10.70;90.70;;;;;;4995494;28;20695;-70
2021/10/10 03:05:08;;;;;;;18.95;15.27;;;10.60;90.90;;;;;;5007344;28;20234;-70
2021/10/10 03:07:35;;;;;;;19.60;16.17;;;10.60;91.00;;;;;;5007890;28;20227;-69
2021/10/10 03:10:01;;;;;;;19.35;16.15;;;10.50;91.00;;;;;;5003503;28;20309;-69
2021/10/10 03:12:28;;;;;;;18.88;15.02;;;10.50;91.00;;;;;;5001080;28;20566;-68
2021/10/10 03:14:55;;;;;;;18.08;15.43;;;10.50;91.20;;;;;;5006007;28;20234;-69
2021/10/10 03:17:22;;;;;;;18.88;15.63;;;10.50;91.10;;;;;;5007803;28;20231;-70
2021/10/10 03:19:49;;;;;;;17.58;14.60;;;10.50;91.10;;;;;;5003520;28;20226;-70
2021/10/10 03:22:17;;;;;;;18.98;16.80;;;10.40;91.10;;;;;;5000816;28;20220;-70
2021/10/10 03:24:44;;;;;;;21.10;15.82;;;10.40;91.00;;;;;;4994428;28;20230;-70
2021/10/10 03:27:11;;;;;;;20.92;16.30;;;10.40;91.00;;;;;;4996891;28;20241;-70
2021/10/10 03:29:38;;;;;;;20.83;16.98;;;10.40;91.10;;;;;;5009355;28;20606;-70
2021/10/10 03:32:07;;;;;;;20.13;16.67;;;10.30;91.20;;;;;;5000984;28;20231;-69
2021/10/10 03:34:34;;;;;;;19.00;15.50;;;10.30;91.30;;;;;;5003783;28;20220;-69
2021/10/10 03:37:01;;;;;;;18.27;14.98;;;10.20;91.30;;;;;;5008582;28;20234;-69
2021/10/10 03:39:29;;;;;;;24.65;16.27;;;10.20;91.30;;;;;;5003354;28;20309;-69
2021/10/10 03:41:56;;;;;;;17.58;15.80;;;10.20;91.50;;;;;;5007638;28;20708;-69
2021/10/10 03:44:23;;;;;;;18.30;16.08;;;10.10;91.50;;;;;;5004858;28;20236;-69
2021/10/10 03:46:50;;;;;;;18.67;16.08;;;10.00;91.60;;;;;;5000676;28;20229;-69
2021/10/10 03:49:17;;;;;;;18.17;16.25;;;10.00;91.70;;;;;;5002875;28;20260;-69
2021/10/10 03:51:44;;;;;;;20.52;15.65;;;10.00;91.80;;;;;;5006767;28;20299;-70
2021/10/10 03:57:02;;;;;;;17.13;14.80;;;10.00;91.70;;;;;;5002759;28;20225;-70
2021/10/10 03:59:31;;;;;;;17.15;15.32;;;9.90;92.40;;;;;;5000237;28;20236;-70
2021/10/10 04:02:05;;;;;;;18.15;15.77;;;9.90;92.50;;;;;;5006831;28;20752;-70
2021/10/10 04:04:34;;;;;;;22.75;18.75;;;9.90;92.60;;;;;;5003664;28;20756;-70
2021/10/10 04:07:01;;;;;;;19.38;16.88;;;10.00;92.00;;;;;;4997524;28;20223;-70
2021/10/10 04:09:28;;;;;;;20.67;15.68;;;10.00;91.90;;;;;;5002869;28;20249;-70
2021/10/10 04:11:54;;;;;;;18.90;16.08;;;10.00;91.90;;;;;;5007025;28;20318;-70
2021/10/10 04:14:23;;;;;;;21.30;18.73;;;9.90;92.60;;;;;;5004353;28;20222;-70
2021/10/10 04:16:49;;;;;;;20.77;16.63;;;9.90;92.60;;;;;;5000520;28;20232;-70
2021/10/10 04:19:16;;;;;;;17.00;14.45;;;9.90;92.60;;;;;;5001476;28;20234;-70
2021/10/10 04:21:43;;;;;;;20.25;17.50;;;9.90;92.60;;;;;;5007006;28;20673;-70
2021/10/10 04:24:10;;;;;;;20.90;16.88;;;9.90;92.60;;;;;;5005215;28;20227;-70
2021/10/10 04:26:37;;;;;;;23.80;17.48;;;9.90;92.60;;;;;;5000208;28;20232;-70
2021/10/10 04:29:04;;;;;;;22.90;17.15;;;9.90;92.50;;;;;;5001376;28;20241;-70
2021/10/10 04:31:35;;;;;;;24.00;19.70;;;9.90;92.50;;;;;;5007035;28;20232;-70
2021/10/10 04:34:02;;;;;;;18.80;16.73;;;9.80;92.50;;;;;;5006839;28;20226;-70
2021/10/10 04:36:29;;;;;;;19.55;16.92;;;9.90;92.40;;;;;;4999929;28;20234;-69
2021/10/10 04:38:56;;;;;;;17.40;15.07;;;9.90;92.40;;;;;;4999082;28;20230;-68
2021/10/10 04:41:24;;;;;;;22.75;17.95;;;9.90;92.40;;;;;;5005573;28;20236;-69
2021/10/10 04:43:51;;;;;;;16.95;15.25;;;9.90;92.30;;;;;;5006809;28;20296;-69
2021/10/10 04:46:18;;;;;;;21.05;17.25;;;9.80;92.30;;;;;;5000189;28;20684;-68
2021/10/10 04:48:46;;;;;;;22.80;17.67;;;9.70;92.40;;;;;;4999808;28;20227;-68
2021/10/10 04:51:13;;;;;;;23.23;18.52;;;9.80;92.50;;;;;;5005031;28;20226;-68
2021/10/10 04:53:40;;;;;;;23.05;17.50;;;9.70;92.50;;;;;;5007685;28;20222;-69
2021/10/10 04:56:07;;;;;;;21.27;17.30;;;9.70;92.40;;;;;;5012636;28;20228;-69
2021/10/10 04:58:34;;;;;;;19.13;16.30;;;9.60;92.40;;;;;;5010909;28;20224;-69
2021/10/10 05:01:01;;;;;;;122.65;90.57;;;9.60;92.40;;;;;;5012917;28;20223;-70
2021/10/10 05:03:27;;;;;;;21.98;18.15;;;9.70;98.00;;;;;;5012625;28;20317;-70
2021/10/10 05:05:55;;;;;;;25.05;17.77;;;9.70;95.20;;;;;;5013036;28;20226;-69
2021/10/10 05:08:22;;;;;;;23.17;17.60;;;9.80;94.00;;;;;;5012333;28;20244;-69
2021/10/10 05:10:49;;;;;;;17.98;15.95;;;9.80;93.20;;;;;;5012902;28;20703;-69
2021/10/10 05:13:16;;;;;;;20.23;16.75;;;9.80;92.90;;;;;;5012485;28;20226;-68
2021/10/10 05:15:43;;;;;;;19.90;16.70;;;9.80;92.70;;;;;;5013049;28;20232;-69
2021/10/10 05:18:10;;;;;;;19.90;17.20;;;9.80;92.50;;;;;;5012797;28;20236;-70
2021/10/10 05:20:36;;;;;;;25.50;19.73;;;9.80;92.40;;;;;;5012402;28;20703;-69
2021/10/10 05:23:05;;;;;;;24.15;17.10;;;9.80;92.50;;;;;;5012745;28;20593;-70
2021/10/10 05:25:32;;;;;;;21.77;16.48;;;9.70;92.50;;;;;;5012223;28;20226;-69
2021/10/10 05:28:00;;;;;;;22.23;19.10;;;9.70;92.50;;;;;;5012734;28;20237;-69
2021/10/10 05:30:27;;;;;;;21.17;17.17;;;9.70;92.50;;;;;;5012204;28;21205;-69
2021/10/10 05:32:54;;;;;;;21.77;17.15;;;9.70;92.60;;;;;;5012702;28;20630;-69
2021/10/10 05:35:21;;;;;;;22.20;18.42;;;9.70;92.60;;;;;;5012385;28;20689;-69
2021/10/10 05:37:47;;;;;;;18.52;16.52;;;9.60;92.50;;;;;;5012675;28;20308;-69
2021/10/10 05:40:16;;;;;;;24.02;19.15;;;9.60;92.50;;;;;;5012140;28;20248;-70
2021/10/10 05:42:42;;;;;;;25.60;21.30;;;9.60;92.50;;;;;;5012603;28;20313;-69
2021/10/10 05:45:10;;;;;;;23.77;19.13;;;9.60;92.70;;;;;;5012634;28;20237;-69
2021/10/10 05:47:37;;;;;;;21.27;17.08;;;9.50;92.70;;;;;;5012320;28;20225;-69
2021/10/10 05:50:04;;;;;;;35.03;19.85;;;9.50;92.90;;;;;;5014728;28;20230;-69
2021/10/10 05:52:31;;;;;;;20.17;17.30;;;9.50;93.00;;;;;;5015954;28;20234;-69
2021/10/10 05:54:58;;;;;;;21.25;18.92;;;9.50;93.00;;;;;;5016326;28;20240;-69
2021/10/10 05:57:32;;;;;;;21.55;17.27;;;9.50;93.00;;;;;;5015482;28;20317;-69
2021/10/10 06:00:02;;;;;;;22.85;19.55;;;9.50;93.00;;;;;;5016087;28;20247;-69
2021/10/10 06:02:31;;;;;;;24.52;17.20;;;9.50;93.00;;;;;;5015793;28;20572;-69
2021/10/10 06:04:58;;;;;;;21.92;18.60;;;9.40;93.00;;;;;;5016066;28;20541;-69
2021/10/10 06:07:24;;;;;;;25.85;18.92;;;9.40;93.10;;;;;;5015236;28;20240;-70
2021/10/10 06:09:51;;;;;;;19.48;15.68;;;9.30;93.10;;;;;;5015814;28;20240;-69
2021/10/10 06:12:18;;;;;;;24.77;20.50;;;9.40;93.20;;;;;;5015584;28;20222;-69
2021/10/10 06:14:49;;;;;;;20.25;18.05;;;9.40;93.10;;;;;;5016040;28;20237;-69
2021/10/10 06:17:17;;;;;;;23.38;19.63;;;9.40;93.30;;;;;;5015892;28;20305;-69
2021/10/10 06:19:44;;;;;;;25.02;21.00;;;9.30;93.30;;;;;;5015537;28;20572;-69
2021/10/10 06:22:11;;;;;;;23.65;17.52;;;9.30;93.30;;;;;;5015874;28;20230;-69
2021/10/10 06:24:40;;;;;;;21.48;17.83;;;9.30;93.40;;;;;;5015309;28;20236;-69
2021/10/10 06:27:07;;;;;;;22.98;18.10;;;9.30;93.40;;;;;;5015812;28;20229;-69
2021/10/10 06:29:33;;;;;;;24.10;17.65;;;9.30;93.30;;;;;;5015108;28;20684;-68
2021/10/10 06:32:02;;;;;;;23.38;19.27;;;9.30;93.40;;;;;;5015759;28;20230;-69
2021/10/10 06:34:28;;;;;;;21.88;19.10;;;9.30;93.30;;;;;;5015100;28;20222;-69
2021/10/10 06:36:55;;;;;;;23.55;18.20;;;9.30;93.30;;;;;;5015450;28;20321;-69
2021/10/10 06:39:22;;;;;;;24.63;19.55;;;9.30;93.60;;;;;;5015028;28;20714;-70
2021/10/10 06:41:50;;;;;;;27.58;19.35;;;9.30;93.60;;;;;;5015561;28;20566;-70
2021/10/10 06:44:17;;;;;;;26.38;19.38;;;9.30;93.80;;;;;;5015319;28;20237;-69
2021/10/10 06:46:45;;;;;;;24.88;19.08;;;9.30;93.70;;;;;;5015074;28;20218;-70
2021/10/10 06:49:14;;;;;;;23.23;18.50;;;9.40;93.90;;;;;;5015115;28;20268;-70
2021/10/10 06:51:41;;;;;;;26.00;19.85;;;9.40;93.90;;;;;;5014886;28;20236;-70
2021/10/10 06:54:08;;;;;;;26.48;20.80;;;9.50;93.90;;;;;;5015042;28;20236;-68
2021/10/10 06:56:42;;;;;;;26.30;18.90;;;9.60;93.70;;;;;;5014681;28;20235;-69
2021/10/10 06:59:09;;;;;;;24.80;19.25;;;9.60;93.60;;;;;;5014814;28;20303;-69
2021/10/10 07:01:36;;;;;;;28.08;21.02;;;9.60;93.40;;;;;;5013791;28;20313;-70
2021/10/10 07:04:03;;;;;;;24.77;19.60;;;9.60;93.30;;;;;;5015024;28;20234;-70
2021/10/10 07:06:31;;;;;;;24.27;19.40;;;9.70;93.40;;;;;;5014521;28;20544;-70
2021/10/10 07:08:58;;;;;;;23.88;20.08;;;9.60;93.10;;;;;;5014821;28;20233;-69
2021/10/10 07:11:25;;;;;;;25.33;21.30;;;9.70;93.20;;;;;;5013914;28;20309;-70
2021/10/10 07:13:52;;;;;;;22.70;18.90;;;9.60;92.90;;;;;;5014751;28;20807;-70
2021/10/10 07:16:22;;;;;;;23.23;18.20;;;9.60;93.00;;;;;;5014907;28;20248;-69
2021/10/10 07:18:51;;;;;;;27.17;19.98;;;9.70;93.10;;;;;;5014500;28;20276;-69
2021/10/10 07:26:47;;;;;;;23.60;18.27;;;9.90;92.80;;;;;;5034436;28;20224;-70
2021/10/10 07:29:13;;;;;;;22.05;19.58;;;10.00;92.20;;;;;;5034099;28;20305;-70
2021/10/10 07:31:40;;;;;;;24.27;19.10;;;9.90;92.60;;;;;;5034302;28;20236;-70
2021/10/10 07:34:07;;;;;;;26.10;19.33;;;10.10;92.00;;;;;;5033928;28;20247;-69
2021/10/10 07:36:34;;;;;;;22.98;16.85;;;10.10;91.70;;;;;;5034255;28;20301;-69
2021/10/10 07:39:01;;;;;;;23.60;19.50;;;10.10;91.80;;;;;;5033618;28;20562;-70
2021/10/10 07:41:30;;;;;;;25.45;19.10;;;10.10;91.50;;;;;;5034210;28;20309;-69
2021/10/10 07:43:57;;;;;;;21.73;18.08;;;10.10;92.00;;;;;;5033661;28;20240;-69
2021/10/10 07:46:33;;;;;;;22.05;18.50;;;10.10;91.50;;;;;;5034148;28;20618;-69
2021/10/10 07:48:59;;;;;;;21.23;17.85;;;10.20;91.50;;;;;;5033429;28;20237;-70
2021/10/10 07:51:28;;;;;;;23.67;18.73;;;10.30;91.30;;;;;;5033979;28;20240;-69
2021/10/10 07:53:55;;;;;;;22.70;17.48;;;10.40;91.10;;;;;;5033224;28;20312;-70
2021/10/10 07:56:22;;;;;;;23.08;19.30;;;10.40;90.90;;;;;;5034099;28;20229;-69
2021/10/10 07:58:51;;;;;;;22.40;16.90;;;10.50;91.00;;;;;;5033169;28;20225;-70
2021/10/10 08:01:18;;;;;;;20.48;17.45;;;10.50;90.70;;;;;;5033789;28;20221;-69
2021/10/10 08:03:44;;;;;;;22.13;16.50;;;10.60;90.90;;;;;;5033586;28;20252;-69
2021/10/10 08:06:12;;;;;;;19.90;17.13;;;10.60;90.70;;;;;;5033233;28;20308;-69
2021/10/10 08:08:39;;;;;;;23.73;17.83;;;10.70;90.40;;;;;;5033396;28;20259;-70
2021/10/10 08:11:06;;;;;;;19.30;16.58;;;10.70;90.10;;;;;;5033321;28;20700;-70
2021/10/10 08:13:33;;;;;;;22.08;18.33;;;10.70;90.00;;;;;;5033433;28;20232;-70
2021/10/10 08:16:01;;;;;;;23.77;19.02;;;10.70;90.10;;;;;;5032969;28;20788;-70
2021/10/10 08:18:28;;;;;;;24.88;18.70;;;10.70;90.10;;;;;;5033429;28;20217;-70
2021/10/10 08:20:54;;;;;;;21.42;18.23;;;10.70;90.20;;;;;;5032890;28;20232;-69
2021/10/10 08:23:21;;;;;;;19.95;17.80;;;10.70;90.30;;;;;;5033137;28;20232;-69
2021/10/10 08:25:48;;;;;;;21.48;17.67;;;10.80;90.30;;;;;;5033389;28;20225;-70
2021/10/10 08:28:15;;;;;;;21.85;18.25;;;10.90;89.90;;;;;;5033024;28;20210;-70
2021/10/10 08:30:42;;;;;;;18.25;15.80;;;11.00;89.40;;;;;;5033251;28;20213;-69
2021/10/10 08:33:10;;;;;;;19.90;16.05;;;11.00;88.60;;;;;;5032759;28;20711;-70
2021/10/10 08:35:37;;;;;;;22.13;17.83;;;11.00;88.70;;;;;;5033144;28;20353;-69
2021/10/10 08:38:04;;;;;;;19.40;16.02;;;11.10;88.70;;;;;;5032618;28;20315;-69
2021/10/10 08:40:31;;;;;;;20.90;16.10;;;11.20;88.60;;;;;;5033048;28;20236;-69
2021/10/10 08:43:01;;;;;;;18.45;16.17;;;11.20;88.60;;;;;;5032627;28;20308;-70
2021/10/10 08:45:30;;;;;;;20.55;15.70;;;11.30;87.30;;;;;;5032920;28;20248;-69
2021/10/10 08:47:57;;;;;;;17.73;14.25;;;11.40;87.10;;;;;;5032604;28;20293;-70
2021/10/10 08:50:27;;;;;;;20.23;14.90;;;11.50;87.30;;;;;;5032768;28;20306;-70
2021/10/10 08:52:57;;;;;;;17.77;15.35;;;11.60;87.70;;;;;;5032506;28;20313;-69
2021/10/10 08:55:25;;;;;;;19.83;15.70;;;11.70;87.30;;;;;;5032752;28;20310;-69
2021/10/10 08:57:53;;;;;;;19.80;16.10;;;11.80;86.50;;;;;;5032692;28;20656;-69
2021/10/10 09:00:22;;;;;;;20.48;16.23;;;11.90;85.40;;;;;;5032397;28;20962;-68
2021/10/10 09:02:51;;;;;;;19.75;17.65;;;12.00;84.40;;;;;;5032954;28;20229;-69
2021/10/10 09:05:18;;;;;;;19.65;15.57;;;12.00;84.80;;;;;;5032288;28;20231;-69
2021/10/10 09:07:48;;;;;;;21.00;14.25;;;12.00;84.80;;;;;;5032723;28;20571;-69
2021/10/10 09:10:25;;;;;;;19.50;15.27;;;12.10;84.10;;;;;;5032169;28;20237;-69
2021/10/10 09:12:53;;;;;;;19.08;15.68;;;12.20;84.00;;;;;;5032711;28;20235;-68
2021/10/10 09:15:21;;;;;;;18.05;16.15;;;12.20;83.90;;;;;;5032266;28;20231;-70
2021/10/10 09:17:56;;;;;;;15.30;13.65;;;12.20;83.60;;;;;;5032613;28;20244;-68
2021/10/10 09:20:28;;;;;;;18.77;14.32;;;12.30;84.00;;;;;;5032441;28;20352;-69
2021/10/10 09:22:56;;;;;;;18.63;13.98;;;12.40;83.20;;;;;;5032480;28;20232;-69
2021/10/10 09:25:23;;;;;;;19.15;12.88;;;12.50;82.80;;;;;;5035297;28;20217;-69
2021/10/10 09:27:50;;;;;;;15.52;13.93;;;12.50;81.50;;;;;;5036835;28;20254;-69
2021/10/10 09:30:20;;;;;;;13.50;12.05;;;12.50;80.70;;;;;;5036070;28;20321;-69
2021/10/10 09:32:53;;;;;;;12.85;11.30;;;12.60;80.60;;;;;;5036531;28;20717;-69
2021/10/10 09:35:26;;;;;;;15.63;13.05;;;12.60;80.10;;;;;;5036224;28;20225;-69
2021/10/10 09:38:12;;;;;;;19.27;12.80;;;12.70;80.20;;;;;;5036671;28;20232;-69
2021/10/10 09:40:46;;;;;;;18.40;11.85;;;12.80;79.70;;;;;;5036694;28;20652;-69
2021/10/10 09:43:13;;;;;;;15.20;12.07;;;12.90;79.40;;;;;;5036173;28;21282;-69
2021/10/10 09:45:52;;;;;;;11.75;10.55;;;13.00;79.80;;;;;;5036246;28;20252;-70
2021/10/10 09:48:33;;;;;;;17.00;12.75;;;13.10;78.70;;;;;;5035953;28;20216;-69
2021/10/10 09:51:00;;;;;;;14.90;11.52;;;13.20;78.40;;;;;;5035938;28;20224;-70
2021/10/10 09:53:33;;;;;;;14.18;11.73;;;13.40;78.40;;;;;;5036061;28;20221;-71
2021/10/10 09:56:03;;;;;;;13.00;10.90;;;13.50;78.80;;;;;;5035528;28;20245;-69
2021/10/10 09:58:38;;;;;;;14.63;11.88;;;13.70;77.20;;;;;;5035841;28;20221;-69
2021/10/10 10:01:14;;;;;;;11.23;10.15;;;13.70;75.60;;;;;;5035340;28;20229;-70
2021/10/10 10:04:02;;;;;;;11.30;10.13;;;13.70;74.90;;;;;;5035988;28;20315;-69
2021/10/10 10:06:31;;;;;;;19.20;16.73;;;13.80;75.00;;;;;;5035844;28;20668;-71
2021/10/10 10:09:03;;;;;;;11.03;8.93;;;13.90;89.80;;;;;;5035610;28;20229;-70
2021/10/10 10:11:32;;;;;;;13.23;9.33;;;14.10;78.70;;;;;;5035046;28;20896;-69
2021/10/10 10:14:01;;;;;;;12.83;10.00;;;14.20;74.90;;;;;;5034719;28;20498;-69
2021/10/10 10:16:29;;;;;;;13.38;9.80;;;14.20;74.30;;;;;;5033959;28;20460;-69
2021/10/10 10:18:58;;;;;;;14.20;10.65;;;14.30;73.90;;;;;;5034830;28;20221;-70
2021/10/10 10:21:27;;;;;;;12.20;9.23;;;14.30;71.90;;;;;;5034419;28;20751;-69
2021/10/10 10:24:00;;;;;;;10.60;9.50;;;14.30;71.60;;;;;;5034612;28;20546;-70
2021/10/10 10:26:32;;;;;;;12.47;8.93;;;14.30;71.30;;;;;;5035160;28;20464;-70
2021/10/10 10:29:02;;;;;;;9.47;8.43;;;14.30;70.60;;;;;;5035388;28;20472;-70
2021/10/10 10:31:29;;;;;;;12.90;9.00;;;14.40;70.70;;;;;;5035092;28;20529;-70
2021/10/10 10:34:18;;;;;;;10.17;8.03;;;14.40;69.70;;;;;;5035228;28;20468;-70
2021/10/10 10:36:53;;;;;;;9.83;8.10;;;14.40;68.50;;;;;;5034384;28;20467;-69
2021/10/10 10:39:39;;;;;;;11.57;7.93;;;14.40;67.10;;;;;;5034753;28;20460;-69
2021/10/10 10:42:07;;;;;;;10.47;7.50;;;14.50;67.60;;;;;;5034683;28;20551;-69
2021/10/10 10:44:43;;;;;;;15.05;13.65;;;14.50;67.50;;;;;;5035249;28;20460;-70
2021/10/10 10:47:12;;;;;;;11.90;9.40;;;14.60;70.10;;;;;;5034647;28;20259;-69
2021/10/10 10:50:01;;;;;;;10.03;8.97;;;14.70;69.80;;;;;;5034991;28;20513;-69
2021/10/10 10:52:30;;;;;;;10.37;9.23;;;14.70;68.70;;;;;;5030597;28;21779;-69
2021/10/10 10:55:13;;;;;;;11.87;8.77;;;14.80;68.70;;;;;;5032778;28;21002;-70
2021/10/10 10:57:43;;;;;;;12.03;8.70;;;14.80;68.50;;;;;;5034868;28;20474;-70
2021/10/10 11:00:12;;;;;;;13.37;10.50;;;14.80;67.30;;;;;;5022774;28;21301;-69
2021/10/10 11:02:53;;;;;;;10.27;9.20;;;14.80;68.40;;;;;;5014938;28;20543;-70
2021/10/10 11:05:31;;;;;;;10.03;8.90;;;14.90;68.20;;;;;;4995834;28;20800;-70
2021/10/10 11:07:59;;;;;;;13.53;9.33;;;14.90;66.80;;;;;;5002560;28;21278;-69
2021/10/10 11:10:28;;;;;;;14.33;8.00;;;14.90;66.40;;;;;;5014543;28;20974;-69
2021/10/10 11:12:58;;;;;;;13.90;11.13;;;14.80;65.80;;;;;;5014210;28;20836;-70
2021/10/10 11:15:25;;;;;;;16.63;10.20;;;14.80;66.00;;;;;;5014946;28;20560;-69
2021/10/10 11:17:56;;;;;;;12.33;9.07;;;14.80;65.70;;;;;;5014332;28;20469;-69
2021/10/10 11:20:24;;;;;;;12.60;10.43;;;14.80;65.90;;;;;;5014602;28;20480;-69
2021/10/10 11:22:51;;;;;;;10.40;7.73;;;14.80;65.70;;;;;;5014334;28;20683;-69
2021/10/10 11:25:18;;;;;;;13.83;11.33;;;14.80;66.40;;;;;;5014647;28;20469;-69
2021/10/10 11:27:50;;;;;;;10.37;8.57;;;14.80;67.20;;;;;;5014121;28;20556;-70
2021/10/10 11:30:16;;;;;;;11.77;9.97;;;14.90;66.20;;;;;;5014227;28;20473;-68
2021/10/10 11:32:55;;;;;;;20.57;18.27;;;15.00;66.60;;;;;;5013597;28;20477;-69
2021/10/10 11:35:24;;;;;;;11.63;9.23;;;15.00;68.60;;;;;;5014303;28;20527;-69
2021/10/10 11:38:06;;;;;;;13.40;10.90;;;15.10;67.80;;;;;;5013830;28;20560;-68
2021/10/10 11:40:33;;;;;;;11.00;8.80;;;15.10;66.80;;;;;;5013906;28;20480;-69
2021/10/10 11:43:02;;;;;;;11.87;9.13;;;15.10;65.90;;;;;;5013725;28;20461;-69
2021/10/10 11:45:29;;;;;;;14.07;9.47;;;15.20;66.00;;;;;;5014110;28;20469;-69
2021/10/10 11:47:56;;;;;;;11.30;9.57;;;15.10;65.30;;;;;;5013205;28;20471;-69
2021/10/10 11:50:23;;;;;;;9.43;7.53;;;15.20;66.40;;;;;;5013913;28;20465;-69
2021/10/10 11:52:59;;;;;;;16.30;13.43;;;15.10;63.80;;;;;;5013634;28;20481;-70
2021/10/10 11:55:33;;;;;;;8.23;7.47;;;15.20;64.40;;;;;;5012468;28;20547;-69
2021/10/10 11:58:03;;;;;;;9.48;7.72;;;15.20;61.70;;;;;;4992592;28;20476;-70
2021/10/10 12:00:32;;;;;;;7.57;5.97;;;15.30;60.10;;;;;;4992700;28;20305;-70
2021/10/10 12:03:09;;;;;;;7.63;6.60;;;15.40;59.60;;;;;;4992465;28;20541;-70
2021/10/10 12:05:41;;;;;;;11.43;7.00;;;15.20;58.40;;;;;;4994316;28;20777;-69
2021/10/10 12:08:18;;;;;;;9.40;8.50;;;15.30;59.60;;;;;;5002792;28;20457;-69
2021/10/10 12:10:48;;;;;;;11.33;7.73;;;15.40;59.80;;;;;;5013342;28;20548;-69
2021/10/10 12:13:17;;;;;;;13.00;7.17;;;15.50;60.00;;;;;;5013681;28;20472;-69
2021/10/10 12:15:44;;;;;;;9.23;7.53;;;15.50;58.60;;;;;;5009023;28;20488;-69
2021/10/10 12:18:12;;;;;;;11.40;9.60;;;15.50;58.30;;;;;;5013479;28;20511;-69
2021/10/10 12:20:40;;;;;;;12.27;9.57;;;15.50;58.70;;;;;;5013520;28;20500;-69
2021/10/10 12:23:08;;;;;;;8.90;7.03;;;15.60;58.90;;;;;;5012883;28;20540;-70
2021/10/10 12:25:38;;;;;;;13.50;9.27;;;15.60;58.90;;;;;;5013430;28;20483;-69
2021/10/10 12:28:08;;;;;;;8.63;7.70;;;15.60;57.90;;;;;;5012921;28;20484;-69
2021/10/10 12:30:39;;;;;;;10.50;6.30;;;15.60;57.40;;;;;;5012944;28;20469;-70
2021/10/10 12:33:25;;;;;;;11.80;8.90;;;15.70;57.70;;;;;;5013009;28;20475;-69
2021/10/10 12:36:00;;;;;;;19.33;16.77;;;15.60;57.70;;;;;;5012784;28;20468;-69
2021/10/10 12:38:32;;;;;;;10.60;8.77;;;15.70;58.60;;;;;;5013121;28;20487;-69
2021/10/10 12:40:59;;;;;;;9.80;6.43;;;15.70;58.40;;;;;;5012621;28;20479;-70
2021/10/10 12:43:34;;;;;;;10.00;6.93;;;15.80;56.80;;;;;;5012486;28;20539;-69
2021/10/10 12:46:02;;;;;;;6.90;6.20;;;15.80;56.00;;;;;;5011602;28;20468;-70